sensor_id;sensor_type;location;lat;lon;timestamp;temperature;humidity
1277;DHT22;631;51.024;13.826;2022-07-18T00:01:00;14.20;89.30
1277;DHT22;631;51.024;13.826;2022-07-18T00:03:26;14.20;89.80
1277;DHT22;631;51.024;13.826;2022-07-18T00:05:52;14.20;90.20
1277;DHT22;631;51.024;13.826;2022-07-18T00:08:18;14.10;90.50
1277;DHT22;631;51.024;13.826;2022-07-18T00:10:44;14.10;91.00
1277;DHT22;631;51.024;13.826;2022-07-18T00:13:09;14.10;91.30
1277;DHT22;631;51.024;13.826;2022-07-18T00:15:36;14.00;91.40
1277;DHT22;631;51.024;13.826;2022-07-18T00:18:03;14.00;91.90
1277;DHT22;631;51.024;13.826;2022-07-18T00:20:29;13.90;91.70
1277;DHT22;631;51.024;13.826;2022-07-18T00:22:55;13.90;91.90
1277;DHT22;631;51.024;13.826;2022-07-18T00:25:21;13.90;92.20
1277;DHT22;631;51.024;13.826;2022-07-18T00:27:47;13.90;92.50
1277;DHT22;631;51.024;13.826;2022-07-18T00:30:13;13.90;92.90
1277;DHT22;631;51.024;13.826;2022-07-18T00:32:39;13.90;93.20
1277;DHT22;631;51.024;13.826;2022-07-18T00:35:05;13.80;93.60
1277;DHT22;631;51.024;13.826;2022-07-18T00:37:30;13.80;94.00
1277;DHT22;631;51.024;13.826;2022-07-18T00:39:56;13.70;94.40
1277;DHT22;631;51.024;13.826;2022-07-18T00:42:22;13.70;94.60
1277;DHT22;631;51.024;13.826;2022-07-18T00:44:55;13.60;94.90
1277;DHT22;631;51.024;13.826;2022-07-18T00:47:21;13.60;95.20
1277;DHT22;631;51.024;13.826;2022-07-18T00:49:47;13.50;95.60
1277;DHT22;631;51.024;13.826;2022-07-18T00:52:13;13.50;95.90
1277;DHT22;631;51.024;13.826;2022-07-18T00:54:39;13.50;96.20
1277;DHT22;631;51.024;13.826;2022-07-18T00:57:05;13.40;96.40
1277;DHT22;631;51.024;13.826;2022-07-18T00:59:31;13.40;96.70
1277;DHT22;631;51.024;13.826;2022-07-18T01:02:16;13.40;96.90
1277;DHT22;631;51.024;13.826;2022-07-18T01:04:42;13.40;96.50
1277;DHT22;631;51.024;13.826;2022-07-18T01:07:07;13.40;97.10
1277;DHT22;631;51.024;13.826;2022-07-18T01:09:33;13.40;97.30
1277;DHT22;631;51.024;13.826;2022-07-18T01:12:00;13.40;97.70
1277;DHT22;631;51.024;13.826;2022-07-18T01:14:26;13.30;98.10
1277;DHT22;631;51.024;13.826;2022-07-18T01:16:51;13.30;98.40
1277;DHT22;631;51.024;13.826;2022-07-18T01:19:17;13.20;98.90
1277;DHT22;631;51.024;13.826;2022-07-18T01:21:43;13.20;99.00
1277;DHT22;631;51.024;13.826;2022-07-18T01:24:08;13.10;99.40
1277;DHT22;631;51.024;13.826;2022-07-18T01:26:34;13.20;99.70
1277;DHT22;631;51.024;13.826;2022-07-18T01:29:02;13.10;99.90
1277;DHT22;631;51.024;13.826;2022-07-18T01:31:27;13.00;99.90
1277;DHT22;631;51.024;13.826;2022-07-18T01:33:55;13.00;99.90
1277;DHT22;631;51.024;13.826;2022-07-18T01:36:21;13.10;99.90
1277;DHT22;631;51.024;13.826;2022-07-18T01:38:46;13.10;99.90
1277;DHT22;631;51.024;13.826;2022-07-18T01:41:12;13.00;99.90
1277;DHT22;631;51.024;13.826;2022-07-18T01:43:41;13.00;99.90
1277;DHT22;631;51.024;13.826;2022-07-18T01:46:09;12.90;99.90
1277;DHT22;631;51.024;13.826;2022-07-18T01:48:37;12.90;99.90
1277;DHT22;631;51.024;13.826;2022-07-18T01:51:03;12.90;99.90
1277;DHT22;631;51.024;13.826;2022-07-18T01:53:28;12.90;99.90
1277;DHT22;631;51.024;13.826;2022-07-18T01:55:54;12.90;99.90
1277;DHT22;631;51.024;13.826;2022-07-18T01:58:19;12.80;99.90
1277;DHT22;631;51.024;13.826;2022-07-18T02:00:45;12.80;99.90
1277;DHT22;631;51.024;13.826;2022-07-18T02:03:11;12.70;99.90
1277;DHT22;631;51.024;13.826;2022-07-18T02:05:36;12.70;99.90
1277;DHT22;631;51.024;13.826;2022-07-18T02:08:02;12.70;99.90
1277;DHT22;631;51.024;13.826;2022-07-18T02:10:28;12.70;99.90
1277;DHT22;631;51.024;13.826;2022-07-18T02:12:54;12.70;99.90
1277;DHT22;631;51.024;13.826;2022-07-18T02:15:19;12.60;99.90
1277;DHT22;631;51.024;13.826;2022-07-18T02:17:45;12.60;99.90
1277;DHT22;631;51.024;13.826;2022-07-18T02:20:12;12.50;99.90
1277;DHT22;631;51.024;13.826;2022-07-18T02:22:38;12.60;99.90
1277;DHT22;631;51.024;13.826;2022-07-18T02:25:05;12.50;99.90
1277;DHT22;631;51.024;13.826;2022-07-18T02:27:30;12.50;99.90
1277;DHT22;631;51.024;13.826;2022-07-18T02:29:57;12.50;99.90
1277;DHT22;631;51.024;13.826;2022-07-18T02:32:23;12.40;99.90
1277;DHT22;631;51.024;13.826;2022-07-18T02:34:49;12.40;99.90
1277;DHT22;631;51.024;13.826;2022-07-18T02:37:14;12.40;99.90
1277;DHT22;631;51.024;13.826;2022-07-18T02:39:40;12.40;99.90
1277;DHT22;631;51.024;13.826;2022-07-18T02:42:06;12.30;99.90
1277;DHT22;631;51.024;13.826;2022-07-18T02:44:31;12.30;99.90
1277;DHT22;631;51.024;13.826;2022-07-18T02:46:57;12.30;99.90
1277;DHT22;631;51.024;13.826;2022-07-18T02:49:23;12.30;99.90
1277;DHT22;631;51.024;13.826;2022-07-18T02:51:56;12.20;99.90
1277;DHT22;631;51.024;13.826;2022-07-18T02:54:24;12.10;99.90
1277;DHT22;631;51.024;13.826;2022-07-18T02:56:50;12.10;99.90
1277;DHT22;631;51.024;13.826;2022-07-18T02:59:16;12.10;99.90
1277;DHT22;631;51.024;13.826;2022-07-18T03:01:42;12.10;99.90
1277;DHT22;631;51.024;13.826;2022-07-18T03:04:07;12.10;99.90
1277;DHT22;631;51.024;13.826;2022-07-18T03:06:33;12.10;99.90
1277;DHT22;631;51.024;13.826;2022-07-18T03:08:58;12.00;99.90
1277;DHT22;631;51.024;13.826;2022-07-18T03:11:24;12.00;99.90
1277;DHT22;631;51.024;13.826;2022-07-18T03:13:49;12.00;99.90
1277;DHT22;631;51.024;13.826;2022-07-18T03:16:15;12.00;99.90
1277;DHT22;631;51.024;13.826;2022-07-18T03:18:41;12.00;99.90
1277;DHT22;631;51.024;13.826;2022-07-18T03:21:06;12.00;99.90
1277;DHT22;631;51.024;13.826;2022-07-18T03:23:32;11.90;99.90
1277;DHT22;631;51.024;13.826;2022-07-18T03:25:57;11.90;99.90
1277;DHT22;631;51.024;13.826;2022-07-18T03:28:23;11.90;99.90
1277;DHT22;631;51.024;13.826;2022-07-18T03:30:48;11.90;99.90
1277;DHT22;631;51.024;13.826;2022-07-18T03:33:14;11.90;99.90
1277;DHT22;631;51.024;13.826;2022-07-18T03:35:40;11.90;99.90
1277;DHT22;631;51.024;13.826;2022-07-18T03:38:05;11.90;99.90
1277;DHT22;631;51.024;13.826;2022-07-18T03:40:31;11.90;99.90
1277;DHT22;631;51.024;13.826;2022-07-18T03:42:57;11.80;99.90
1277;DHT22;631;51.024;13.826;2022-07-18T03:45:22;11.90;99.90
1277;DHT22;631;51.024;13.826;2022-07-18T03:47:48;11.90;99.90
1277;DHT22;631;51.024;13.826;2022-07-18T03:50:14;11.90;99.90
1277;DHT22;631;51.024;13.826;2022-07-18T03:52:39;11.90;99.90
1277;DHT22;631;51.024;13.826;2022-07-18T03:55:06;11.90;99.90
1277;DHT22;631;51.024;13.826;2022-07-18T03:57:32;11.90;99.90
1277;DHT22;631;51.024;13.826;2022-07-18T03:59:57;12.00;99.90
1277;DHT22;631;51.024;13.826;2022-07-18T04:02:23;12.00;99.90
1277;DHT22;631;51.024;13.826;2022-07-18T04:04:48;12.00;99.90
1277;DHT22;631;51.024;13.826;2022-07-18T04:07:14;12.00;99.90
1277;DHT22;631;51.024;13.826;2022-07-18T04:09:40;11.90;99.90
1277;DHT22;631;51.024;13.826;2022-07-18T04:12:05;11.90;99.90
1277;DHT22;631;51.024;13.826;2022-07-18T04:14:31;11.90;99.90
1277;DHT22;631;51.024;13.826;2022-07-18T04:16:56;11.90;99.90
1277;DHT22;631;51.024;13.826;2022-07-18T04:19:22;11.90;99.90
1277;DHT22;631;51.024;13.826;2022-07-18T04:21:49;12.00;99.90
1277;DHT22;631;51.024;13.826;2022-07-18T04:24:15;12.00;99.90
1277;DHT22;631;51.024;13.826;2022-07-18T04:26:41;12.00;99.90
1277;DHT22;631;51.024;13.826;2022-07-18T04:29:06;12.00;99.90
1277;DHT22;631;51.024;13.826;2022-07-18T04:31:32;12.10;99.90
1277;DHT22;631;51.024;13.826;2022-07-18T04:33:57;12.10;99.90
1277;DHT22;631;51.024;13.826;2022-07-18T04:36:23;12.20;99.90
1277;DHT22;631;51.024;13.826;2022-07-18T04:38:51;12.20;99.90
1277;DHT22;631;51.024;13.826;2022-07-18T04:41:16;12.30;99.90
1277;DHT22;631;51.024;13.826;2022-07-18T04:43:45;12.40;99.90
1277;DHT22;631;51.024;13.826;2022-07-18T04:46:10;12.40;99.90
1277;DHT22;631;51.024;13.826;2022-07-18T04:48:36;12.50;99.90
1277;DHT22;631;51.024;13.826;2022-07-18T04:51:03;12.60;99.90
1277;DHT22;631;51.024;13.826;2022-07-18T04:53:29;12.70;99.90
1277;DHT22;631;51.024;13.826;2022-07-18T04:55:55;12.90;99.90
1277;DHT22;631;51.024;13.826;2022-07-18T04:58:20;13.00;99.90
1277;DHT22;631;51.024;13.826;2022-07-18T05:00:46;13.00;99.90
1277;DHT22;631;51.024;13.826;2022-07-18T05:03:13;13.10;99.90
1277;DHT22;631;51.024;13.826;2022-07-18T05:05:39;13.20;99.90
1277;DHT22;631;51.024;13.826;2022-07-18T05:08:05;13.30;99.90
1277;DHT22;631;51.024;13.826;2022-07-18T05:10:31;13.30;99.90
1277;DHT22;631;51.024;13.826;2022-07-18T05:12:57;13.40;99.90
1277;DHT22;631;51.024;13.826;2022-07-18T05:15:24;13.40;99.90
1277;DHT22;631;51.024;13.826;2022-07-18T05:17:50;13.60;99.90
1277;DHT22;631;51.024;13.826;2022-07-18T05:20:18;13.70;99.90
1277;DHT22;631;51.024;13.826;2022-07-18T05:22:44;13.70;99.90
1277;DHT22;631;51.024;13.826;2022-07-18T05:25:11;13.80;99.90
1277;DHT22;631;51.024;13.826;2022-07-18T05:27:37;13.90;99.90
1277;DHT22;631;51.024;13.826;2022-07-18T05:30:04;14.00;99.90
1277;DHT22;631;51.024;13.826;2022-07-18T05:32:30;14.20;99.90
1277;DHT22;631;51.024;13.826;2022-07-18T05:34:56;14.20;99.30
1277;DHT22;631;51.024;13.826;2022-07-18T05:37:21;14.20;98.30
1277;DHT22;631;51.024;13.826;2022-07-18T05:39:47;14.30;98.10
1277;DHT22;631;51.024;13.826;2022-07-18T05:42:13;14.40;97.70
1277;DHT22;631;51.024;13.826;2022-07-18T05:44:39;14.50;97.20
1277;DHT22;631;51.024;13.826;2022-07-18T05:47:04;14.60;97.10
1277;DHT22;631;51.024;13.826;2022-07-18T05:49:30;14.70;96.70
1277;DHT22;631;51.024;13.826;2022-07-18T05:51:55;14.80;96.20
1277;DHT22;631;51.024;13.826;2022-07-18T05:54:21;14.90;96.20
1277;DHT22;631;51.024;13.826;2022-07-18T05:56:50;15.00;95.90
1277;DHT22;631;51.024;13.826;2022-07-18T05:59:17;15.20;95.40
1277;DHT22;631;51.024;13.826;2022-07-18T06:01:43;15.30;94.80
1277;DHT22;631;51.024;13.826;2022-07-18T06:04:09;15.50;93.90
1277;DHT22;631;51.024;13.826;2022-07-18T06:06:35;15.60;93.60
1277;DHT22;631;51.024;13.826;2022-07-18T06:09:01;15.60;93.40
1277;DHT22;631;51.024;13.826;2022-07-18T06:11:27;15.70;93.40
1277;DHT22;631;51.024;13.826;2022-07-18T06:13:53;15.80;92.90
1277;DHT22;631;51.024;13.826;2022-07-18T06:16:18;15.80;92.60
1277;DHT22;631;51.024;13.826;2022-07-18T06:18:44;15.90;92.00
1277;DHT22;631;51.024;13.826;2022-07-18T06:21:09;16.00;92.30
1277;DHT22;631;51.024;13.826;2022-07-18T06:23:35;16.00;92.20
1277;DHT22;631;51.024;13.826;2022-07-18T06:26:01;16.10;92.10
1277;DHT22;631;51.024;13.826;2022-07-18T06:28:27;16.20;92.20
1277;DHT22;631;51.024;13.826;2022-07-18T06:30:54;16.30;91.90
1277;DHT22;631;51.024;13.826;2022-07-18T06:33:20;16.50;91.40
1277;DHT22;631;51.024;13.826;2022-07-18T06:35:46;16.70;90.30
1277;DHT22;631;51.024;13.826;2022-07-18T06:38:13;16.90;90.20
1277;DHT22;631;51.024;13.826;2022-07-18T06:40:39;17.00;89.70
1277;DHT22;631;51.024;13.826;2022-07-18T06:43:04;17.20;89.00
1277;DHT22;631;51.024;13.826;2022-07-18T06:45:31;17.40;85.30
1277;DHT22;631;51.024;13.826;2022-07-18T06:47:57;17.50;84.70
1277;DHT22;631;51.024;13.826;2022-07-18T06:50:23;17.60;82.80
1277;DHT22;631;51.024;13.826;2022-07-18T06:52:48;17.70;82.40
1277;DHT22;631;51.024;13.826;2022-07-18T06:55:14;17.80;81.70
1277;DHT22;631;51.024;13.826;2022-07-18T06:57:40;18.00;81.10
1277;DHT22;631;51.024;13.826;2022-07-18T07:00:08;18.10;80.50
1277;DHT22;631;51.024;13.826;2022-07-18T07:02:39;18.30;79.50
1277;DHT22;631;51.024;13.826;2022-07-18T07:05:05;18.40;79.10
1277;DHT22;631;51.024;13.826;2022-07-18T07:07:31;18.60;78.90
1277;DHT22;631;51.024;13.826;2022-07-18T07:09:56;18.80;78.70
1277;DHT22;631;51.024;13.826;2022-07-18T07:12:22;19.00;76.50
1277;DHT22;631;51.024;13.826;2022-07-18T07:14:47;19.10;74.70
1277;DHT22;631;51.024;13.826;2022-07-18T07:17:13;19.20;73.50
1277;DHT22;631;51.024;13.826;2022-07-18T07:19:39;19.40;71.70
1277;DHT22;631;51.024;13.826;2022-07-18T07:22:04;19.60;71.00
1277;DHT22;631;51.024;13.826;2022-07-18T07:24:30;19.80;69.90
1277;DHT22;631;51.024;13.826;2022-07-18T07:26:55;19.90;67.40
1277;DHT22;631;51.024;13.826;2022-07-18T07:29:21;20.10;66.40
1277;DHT22;631;51.024;13.826;2022-07-18T07:31:46;20.30;62.60
1277;DHT22;631;51.024;13.826;2022-07-18T07:34:12;20.50;60.70
1277;DHT22;631;51.024;13.826;2022-07-18T07:36:38;20.70;58.80
1277;DHT22;631;51.024;13.826;2022-07-18T07:39:03;20.90;57.40
1277;DHT22;631;51.024;13.826;2022-07-18T07:41:29;21.10;56.20
1277;DHT22;631;51.024;13.826;2022-07-18T07:43:54;21.30;55.70
1277;DHT22;631;51.024;13.826;2022-07-18T07:46:20;21.50;52.90
1277;DHT22;631;51.024;13.826;2022-07-18T07:48:46;21.50;50.50
1277;DHT22;631;51.024;13.826;2022-07-18T07:51:13;21.60;50.00
1277;DHT22;631;51.024;13.826;2022-07-18T07:53:39;21.70;48.70
1277;DHT22;631;51.024;13.826;2022-07-18T07:56:04;21.80;48.40
1277;DHT22;631;51.024;13.826;2022-07-18T07:58:30;22.00;48.10
1277;DHT22;631;51.024;13.826;2022-07-18T08:00:56;22.00;48.00
1277;DHT22;631;51.024;13.826;2022-07-18T08:03:21;22.20;47.70
1277;DHT22;631;51.024;13.826;2022-07-18T08:05:50;22.40;47.00
1277;DHT22;631;51.024;13.826;2022-07-18T08:08:17;22.70;45.90
1277;DHT22;631;51.024;13.826;2022-07-18T08:10:43;22.90;44.60
1277;DHT22;631;51.024;13.826;2022-07-18T08:13:10;23.10;44.70
1277;DHT22;631;51.024;13.826;2022-07-18T08:15:37;23.30;41.90
1277;DHT22;631;51.024;13.826;2022-07-18T08:18:03;23.50;40.30
1277;DHT22;631;51.024;13.826;2022-07-18T08:20:29;23.60;40.30
1277;DHT22;631;51.024;13.826;2022-07-18T08:23:04;23.60;38.70
1277;DHT22;631;51.024;13.826;2022-07-18T08:25:33;23.80;37.80
1277;DHT22;631;51.024;13.826;2022-07-18T08:27:59;23.90;37.70
1277;DHT22;631;51.024;13.826;2022-07-18T08:30:26;24.00;38.30
1277;DHT22;631;51.024;13.826;2022-07-18T08:32:52;24.10;39.00
1277;DHT22;631;51.024;13.826;2022-07-18T08:35:17;24.20;37.80
1277;DHT22;631;51.024;13.826;2022-07-18T08:37:43;24.40;37.80
1277;DHT22;631;51.024;13.826;2022-07-18T08:40:09;24.60;37.30
1277;DHT22;631;51.024;13.826;2022-07-18T08:42:35;24.70;37.30
1277;DHT22;631;51.024;13.826;2022-07-18T08:45:02;24.90;37.60
1277;DHT22;631;51.024;13.826;2022-07-18T08:47:29;25.10;35.30
1277;DHT22;631;51.024;13.826;2022-07-18T08:49:55;25.30;34.10
1277;DHT22;631;51.024;13.826;2022-07-18T08:52:21;25.40;33.50
1277;DHT22;631;51.024;13.826;2022-07-18T08:54:47;25.40;32.40
1277;DHT22;631;51.024;13.826;2022-07-18T08:57:15;25.60;32.70
1277;DHT22;631;51.024;13.826;2022-07-18T08:59:40;25.60;32.70
1277;DHT22;631;51.024;13.826;2022-07-18T09:02:09;25.80;32.80
1277;DHT22;631;51.024;13.826;2022-07-18T09:04:43;25.90;31.70
1277;DHT22;631;51.024;13.826;2022-07-18T09:07:10;25.90;30.70
1277;DHT22;631;51.024;13.826;2022-07-18T09:09:53;26.10;30.40
1277;DHT22;631;51.024;13.826;2022-07-18T09:12:19;26.10;30.40
1277;DHT22;631;51.024;13.826;2022-07-18T09:14:46;26.30;31.30
1277;DHT22;631;51.024;13.826;2022-07-18T09:17:17;26.40;30.60
1277;DHT22;631;51.024;13.826;2022-07-18T09:20:16;26.60;29.90
1277;DHT22;631;51.024;13.826;2022-07-18T09:22:44;26.60;29.20
1277;DHT22;631;51.024;13.826;2022-07-18T09:25:16;26.70;28.90
1277;DHT22;631;51.024;13.826;2022-07-18T09:27:44;26.80;28.90
1277;DHT22;631;51.024;13.826;2022-07-18T09:30:25;26.90;28.90
1277;DHT22;631;51.024;13.826;2022-07-18T09:33:06;27.10;27.70
1277;DHT22;631;51.024;13.826;2022-07-18T09:35:47;27.20;27.20
1277;DHT22;631;51.024;13.826;2022-07-18T09:38:15;27.20;27.40
1277;DHT22;631;51.024;13.826;2022-07-18T09:40:44;27.20;27.20
1277;DHT22;631;51.024;13.826;2022-07-18T09:43:18;27.30;27.50
1277;DHT22;631;51.024;13.826;2022-07-18T09:45:49;27.40;27.80
1277;DHT22;631;51.024;13.826;2022-07-18T09:48:20;27.40;26.80
1277;DHT22;631;51.024;13.826;2022-07-18T09:50:54;27.30;26.60
1277;DHT22;631;51.024;13.826;2022-07-18T09:53:29;27.40;27.40
1277;DHT22;631;51.024;13.826;2022-07-18T09:56:04;27.50;27.90
1277;DHT22;631;51.024;13.826;2022-07-18T09:58:32;27.70;27.20
1277;DHT22;631;51.024;13.826;2022-07-18T10:01:00;28.00;27.70
1277;DHT22;631;51.024;13.826;2022-07-18T10:03:27;28.20;39.10
1277;DHT22;631;51.024;13.826;2022-07-18T10:05:56;28.40;38.30
1277;DHT22;631;51.024;13.826;2022-07-18T10:08:25;28.60;38.40
1277;DHT22;631;51.024;13.826;2022-07-18T10:10:51;28.90;36.20
1277;DHT22;631;51.024;13.826;2022-07-18T10:13:18;29.10;35.30
1277;DHT22;631;51.024;13.826;2022-07-18T10:15:45;29.20;34.50
1277;DHT22;631;51.024;13.826;2022-07-18T10:18:16;29.40;34.10
1277;DHT22;631;51.024;13.826;2022-07-18T10:23:41;29.60;33.00
1277;DHT22;631;51.024;13.826;2022-07-18T10:31:32;30.10;29.20
1277;DHT22;631;51.024;13.826;2022-07-18T10:36:35;30.10;29.90
1277;DHT22;631;51.024;13.826;2022-07-18T10:39:18;30.20;30.00
1277;DHT22;631;51.024;13.826;2022-07-18T10:57:38;30.70;25.00
1277;DHT22;631;51.024;13.826;2022-07-18T11:03:07;30.90;25.30
1277;DHT22;631;51.024;13.826;2022-07-18T11:05:53;31.10;24.80
1277;DHT22;631;51.024;13.826;2022-07-18T11:08:21;31.30;22.10
1277;DHT22;631;51.024;13.826;2022-07-18T11:18:31;31.40;22.30
1277;DHT22;631;51.024;13.826;2022-07-18T11:20:57;31.60;21.10
1277;DHT22;631;51.024;13.826;2022-07-18T11:23:26;31.70;21.30
1277;DHT22;631;51.024;13.826;2022-07-18T11:25:57;31.90;20.70
1277;DHT22;631;51.024;13.826;2022-07-18T11:28:24;32.20;19.90
1277;DHT22;631;51.024;13.826;2022-07-18T11:31:08;32.30;19.20
1277;DHT22;631;51.024;13.826;2022-07-18T11:33:36;32.30;18.70
1277;DHT22;631;51.024;13.826;2022-07-18T11:36:05;32.30;18.40
1277;DHT22;631;51.024;13.826;2022-07-18T11:38:31;32.30;17.20
1277;DHT22;631;51.024;13.826;2022-07-18T11:40:57;32.20;17.60
1277;DHT22;631;51.024;13.826;2022-07-18T11:43:24;32.40;17.70
1277;DHT22;631;51.024;13.826;2022-07-18T11:46:07;32.70;16.50
1277;DHT22;631;51.024;13.826;2022-07-18T11:48:34;32.70;16.40
1277;DHT22;631;51.024;13.826;2022-07-18T11:51:01;32.70;16.80
1277;DHT22;631;51.024;13.826;2022-07-18T11:53:28;32.80;16.60
1277;DHT22;631;51.024;13.826;2022-07-18T11:55:55;32.90;16.20
1277;DHT22;631;51.024;13.826;2022-07-18T11:58:21;32.90;15.30
1277;DHT22;631;51.024;13.826;2022-07-18T12:00:47;33.00;15.00
1277;DHT22;631;51.024;13.826;2022-07-18T12:03:19;33.30;13.50
1277;DHT22;631;51.024;13.826;2022-07-18T12:05:50;33.20;13.70
1277;DHT22;631;51.024;13.826;2022-07-18T12:08:33;33.10;14.70
1277;DHT22;631;51.024;13.826;2022-07-18T12:13:45;33.00;13.20
1277;DHT22;631;51.024;13.826;2022-07-18T12:18:55;33.00;12.50
1277;DHT22;631;51.024;13.826;2022-07-18T12:21:21;32.70;13.10
1277;DHT22;631;51.024;13.826;2022-07-18T12:23:47;32.80;13.20
1277;DHT22;631;51.024;13.826;2022-07-18T12:26:31;32.70;12.70
1277;DHT22;631;51.024;13.826;2022-07-18T12:29:07;32.80;13.00
1277;DHT22;631;51.024;13.826;2022-07-18T12:31:45;32.70;12.10
1277;DHT22;631;51.024;13.826;2022-07-18T12:34:15;32.50;12.90
1277;DHT22;631;51.024;13.826;2022-07-18T12:36:55;32.40;12.60
1277;DHT22;631;51.024;13.826;2022-07-18T12:39:32;32.60;13.20
1277;DHT22;631;51.024;13.826;2022-07-18T12:41:59;32.70;12.50
1277;DHT22;631;51.024;13.826;2022-07-18T12:44:29;32.90;11.40
1277;DHT22;631;51.024;13.826;2022-07-18T12:46:55;33.10;11.30
1277;DHT22;631;51.024;13.826;2022-07-18T12:49:21;33.20;11.20
1277;DHT22;631;51.024;13.826;2022-07-18T12:51:47;33.40;10.70
1277;DHT22;631;51.024;13.826;2022-07-18T12:54:13;33.60;10.20
1277;DHT22;631;51.024;13.826;2022-07-18T12:56:39;33.80;9.50
1277;DHT22;631;51.024;13.826;2022-07-18T12:59:04;33.90;9.50
1277;DHT22;631;51.024;13.826;2022-07-18T13:01:31;34.00;9.20
1277;DHT22;631;51.024;13.826;2022-07-18T13:03:57;34.00;8.20
1277;DHT22;631;51.024;13.826;2022-07-18T13:06:23;34.00;8.70
1277;DHT22;631;51.024;13.826;2022-07-18T13:08:48;34.30;7.90
1277;DHT22;631;51.024;13.826;2022-07-18T13:11:14;34.70;6.90
1277;DHT22;631;51.024;13.826;2022-07-18T13:13:40;35.10;6.60
1277;DHT22;631;51.024;13.826;2022-07-18T13:16:06;35.10;7.40
1277;DHT22;631;51.024;13.826;2022-07-18T13:18:32;35.00;6.80
1277;DHT22;631;51.024;13.826;2022-07-18T13:20:57;35.00;5.80
1277;DHT22;631;51.024;13.826;2022-07-18T13:23:23;34.80;6.20
1277;DHT22;631;51.024;13.826;2022-07-18T13:25:49;35.10;5.20
1277;DHT22;631;51.024;13.826;2022-07-18T13:28:14;35.70;5.00
1277;DHT22;631;51.024;13.826;2022-07-18T13:30:40;36.20;4.00
1277;DHT22;631;51.024;13.826;2022-07-18T13:33:06;36.80;3.60
1277;DHT22;631;51.024;13.826;2022-07-18T13:35:33;37.30;2.60
1277;DHT22;631;51.024;13.826;2022-07-18T13:37:59;37.40;2.60
1277;DHT22;631;51.024;13.826;2022-07-18T13:40:25;37.10;2.40
1277;DHT22;631;51.024;13.826;2022-07-18T13:42:50;36.70;2.30
1277;DHT22;631;51.024;13.826;2022-07-18T13:45:16;36.10;1.20
1277;DHT22;631;51.024;13.826;2022-07-18T13:47:42;35.70;1.40
1277;DHT22;631;51.024;13.826;2022-07-18T13:50:09;35.40;2.00
1277;DHT22;631;51.024;13.826;2022-07-18T13:52:35;35.20;1.70
1277;DHT22;631;51.024;13.826;2022-07-18T13:55:01;34.90;2.40
1277;DHT22;631;51.024;13.826;2022-07-18T13:57:27;34.90;1.60
1277;DHT22;631;51.024;13.826;2022-07-18T14:00:00;34.70;2.20
1277;DHT22;631;51.024;13.826;2022-07-18T14:02:26;34.40;2.40
1277;DHT22;631;51.024;13.826;2022-07-18T14:04:52;34.20;2.10
1277;DHT22;631;51.024;13.826;2022-07-18T14:07:18;34.10;2.90
1277;DHT22;631;51.024;13.826;2022-07-18T14:09:44;33.90;1.80
1277;DHT22;631;51.024;13.826;2022-07-18T14:12:10;33.80;1.60
1277;DHT22;631;51.024;13.826;2022-07-18T14:14:35;33.80;2.00
1277;DHT22;631;51.024;13.826;2022-07-18T14:17:01;33.90;1.70
1277;DHT22;631;51.024;13.826;2022-07-18T14:19:27;33.80;2.20
1277;DHT22;631;51.024;13.826;2022-07-18T14:21:52;33.40;2.20
1277;DHT22;631;51.024;13.826;2022-07-18T14:24:18;33.30;2.20
1277;DHT22;631;51.024;13.826;2022-07-18T14:26:43;33.00;2.50
1277;DHT22;631;51.024;13.826;2022-07-18T14:29:09;33.00;3.00
1277;DHT22;631;51.024;13.826;2022-07-18T14:31:35;33.20;1.70
1277;DHT22;631;51.024;13.826;2022-07-18T14:34:00;33.80;2.20
1277;DHT22;631;51.024;13.826;2022-07-18T14:36:26;33.90;1.30
1277;DHT22;631;51.024;13.826;2022-07-18T14:38:52;34.20;1.60
1277;DHT22;631;51.024;13.826;2022-07-18T14:41:17;34.50;1.00
1277;DHT22;631;51.024;13.826;2022-07-18T14:43:43;34.50;1.00
1277;DHT22;631;51.024;13.826;2022-07-18T14:46:08;34.40;1.00
1277;DHT22;631;51.024;13.826;2022-07-18T14:48:34;34.20;1.00
1277;DHT22;631;51.024;13.826;2022-07-18T14:51:00;34.10;1.00
1277;DHT22;631;51.024;13.826;2022-07-18T14:53:26;33.90;1.00
1277;DHT22;631;51.024;13.826;2022-07-18T14:55:52;33.80;1.00
1277;DHT22;631;51.024;13.826;2022-07-18T14:58:18;33.70;1.00
1277;DHT22;631;51.024;13.826;2022-07-18T15:00:43;33.70;1.10
1277;DHT22;631;51.024;13.826;2022-07-18T15:03:09;34.00;1.00
1277;DHT22;631;51.024;13.826;2022-07-18T15:05:35;34.30;1.00
1277;DHT22;631;51.024;13.826;2022-07-18T15:08:00;34.40;1.00
1277;DHT22;631;51.024;13.826;2022-07-18T15:10:26;34.40;1.00
1277;DHT22;631;51.024;13.826;2022-07-18T15:12:52;34.60;1.00
1277;DHT22;631;51.024;13.826;2022-07-18T15:15:17;34.80;1.00
1277;DHT22;631;51.024;13.826;2022-07-18T15:17:43;35.00;1.00
1277;DHT22;631;51.024;13.826;2022-07-18T15:20:09;35.30;1.00
1277;DHT22;631;51.024;13.826;2022-07-18T15:22:36;35.40;1.00
1277;DHT22;631;51.024;13.826;2022-07-18T15:25:02;35.30;1.00
1277;DHT22;631;51.024;13.826;2022-07-18T15:27:28;34.90;1.00
1277;DHT22;631;51.024;13.826;2022-07-18T15:29:54;34.70;1.00
1277;DHT22;631;51.024;13.826;2022-07-18T15:32:20;34.70;1.00
1277;DHT22;631;51.024;13.826;2022-07-18T15:34:45;34.70;1.00
1277;DHT22;631;51.024;13.826;2022-07-18T15:37:11;34.90;1.00
1277;DHT22;631;51.024;13.826;2022-07-18T15:39:36;35.10;1.00
1277;DHT22;631;51.024;13.826;2022-07-18T15:42:02;34.90;1.00
1277;DHT22;631;51.024;13.826;2022-07-18T15:44:28;35.10;1.00
1277;DHT22;631;51.024;13.826;2022-07-18T15:46:54;35.30;1.00
1277;DHT22;631;51.024;13.826;2022-07-18T15:49:20;35.20;1.00
1277;DHT22;631;51.024;13.826;2022-07-18T15:51:45;35.20;1.00
1277;DHT22;631;51.024;13.826;2022-07-18T15:54:15;35.40;1.00
1277;DHT22;631;51.024;13.826;2022-07-18T15:56:41;35.40;1.00
1277;DHT22;631;51.024;13.826;2022-07-18T15:59:07;35.30;1.00
1277;DHT22;631;51.024;13.826;2022-07-18T16:01:33;35.50;1.00
1277;DHT22;631;51.024;13.826;2022-07-18T16:03:59;35.40;1.00
1277;DHT22;631;51.024;13.826;2022-07-18T16:06:24;35.60;1.00
1277;DHT22;631;51.024;13.826;2022-07-18T16:08:50;35.60;1.00
1277;DHT22;631;51.024;13.826;2022-07-18T16:11:15;35.80;1.00
1277;DHT22;631;51.024;13.826;2022-07-18T16:13:41;35.50;1.00
1277;DHT22;631;51.024;13.826;2022-07-18T16:16:07;35.40;1.00
1277;DHT22;631;51.024;13.826;2022-07-18T16:18:32;35.60;1.00
1277;DHT22;631;51.024;13.826;2022-07-18T16:20:58;35.60;1.00
1277;DHT22;631;51.024;13.826;2022-07-18T16:23:24;35.30;1.00
1277;DHT22;631;51.024;13.826;2022-07-18T16:25:50;35.60;1.00
1277;DHT22;631;51.024;13.826;2022-07-18T16:28:15;35.50;1.00
1277;DHT22;631;51.024;13.826;2022-07-18T16:30:41;35.60;1.00
1277;DHT22;631;51.024;13.826;2022-07-18T16:33:07;35.40;1.00
1277;DHT22;631;51.024;13.826;2022-07-18T16:35:32;35.00;1.00
1277;DHT22;631;51.024;13.826;2022-07-18T16:37:58;34.90;1.00
1277;DHT22;631;51.024;13.826;2022-07-18T16:40:24;34.80;1.00
1277;DHT22;631;51.024;13.826;2022-07-18T16:42:50;34.60;1.00
1277;DHT22;631;51.024;13.826;2022-07-18T16:45:16;34.50;1.00